Terminal Aerodrome Forecast
Issued by NWS

Home | Current Version | Previous Version | Text Only | Print | Product List | Glossary On
Versions: 1 2 3 4 5 6 7 8 9 10 11 12 13 14 15 16 17 18 19 20 21 22 23 24 25 26 27 28 29 30 31 32
000
FTAK31 PAFA 051121
TAFAFA
TAF
PAFA 051121Z 0512/0618 33003KT P6SM FEW100 BKN200
     FM051700 26006KT P6SM VCSH SCT050 BKN120
     FM052200 24008KT P6SM -SHRA VCTS BKN050CB BKN120 OVC200
     FM060500 26010KT P6SM VCSH SCT010 OVC040
     FM061000 VRB04KT P6SM SCT040 BKN100 OVC200
     FM061600 29006KT P6SM FEW100 SCT200=

USA.gov is the U.S. government's official web portal to all federal, state and local government web resources and services.